sensor_id;sensor_type;location;lat;lon;timestamp;pressure;altitude;pressure_sealevel;temperature;humidity
78117;BME280;69042;59.120;37.904;2023-08-30T00:00:59;100115.75;;;13.15;77.19
78117;BME280;69042;59.120;37.904;2023-08-30T00:03:26;100109.00;;;13.10;77.30
78117;BME280;69042;59.120;37.904;2023-08-30T00:05:52;100112.06;;;13.01;77.32
78117;BME280;69042;59.120;37.904;2023-08-30T00:08:18;100118.25;;;13.00;77.36
78117;BME280;69042;59.120;37.904;2023-08-30T00:10:47;100115.81;;;12.97;77.40
78117;BME280;69042;59.120;37.904;2023-08-30T00:13:13;100120.34;;;12.94;77.26
78117;BME280;69042;59.120;37.904;2023-08-30T00:15:39;100120.50;;;12.90;77.42
78117;BME280;69042;59.120;37.904;2023-08-30T00:18:07;100119.81;;;12.87;77.53
78117;BME280;69042;59.120;37.904;2023-08-30T00:20:33;100113.97;;;12.82;77.29
78117;BME280;69042;59.120;37.904;2023-08-30T00:23:00;100115.88;;;12.78;77.38
78117;BME280;69042;59.120;37.904;2023-08-30T00:25:26;100124.81;;;12.74;77.50
78117;BME280;69042;59.120;37.904;2023-08-30T00:27:52;100111.94;;;12.69;77.60
78117;BME280;69042;59.120;37.904;2023-08-30T00:30:18;100125.16;;;12.68;77.71
78117;BME280;69042;59.120;37.904;2023-08-30T00:32:45;100114.81;;;12.65;77.74
78117;BME280;69042;59.120;37.904;2023-08-30T00:35:11;100113.13;;;12.64;77.67
78117;BME280;69042;59.120;37.904;2023-08-30T00:37:37;100110.75;;;12.59;77.85
78117;BME280;69042;59.120;37.904;2023-08-30T00:40:05;100109.91;;;12.59;77.93
78117;BME280;69042;59.120;37.904;2023-08-30T00:42:32;100115.22;;;12.57;77.81
78117;BME280;69042;59.120;37.904;2023-08-30T00:44:59;100113.50;;;12.56;78.15
78117;BME280;69042;59.120;37.904;2023-08-30T00:47:26;100109.19;;;12.55;78.17
78117;BME280;69042;59.120;37.904;2023-08-30T00:49:52;100108.34;;;12.55;78.02
78117;BME280;69042;59.120;37.904;2023-08-30T00:52:20;100109.34;;;12.52;78.10
78117;BME280;69042;59.120;37.904;2023-08-30T00:54:47;100107.66;;;12.51;78.18
78117;BME280;69042;59.120;37.904;2023-08-30T00:57:14;100107.66;;;12.51;78.30
78117;BME280;69042;59.120;37.904;2023-08-30T00:59:40;100106.75;;;12.52;78.16
78117;BME280;69042;59.120;37.904;2023-08-30T01:02:06;100103.25;;;12.52;78.43
78117;BME280;69042;59.120;37.904;2023-08-30T01:04:35;100106.75;;;12.52;78.35
78117;BME280;69042;59.120;37.904;2023-08-30T01:07:02;100100.72;;;12.50;78.16
78117;BME280;69042;59.120;37.904;2023-08-30T01:09:28;100103.41;;;12.48;78.65
78117;BME280;69042;59.120;37.904;2023-08-30T01:12:18;100105.31;;;12.45;79.21
78117;BME280;69042;59.120;37.904;2023-08-30T01:15:29;100104.41;;;12.46;78.98
78117;BME280;69042;59.120;37.904;2023-08-30T01:17:49;100106.09;;;12.47;78.84
78117;BME280;69042;59.120;37.904;2023-08-30T01:20:18;100106.09;;;12.47;79.14
78117;BME280;69042;59.120;37.904;2023-08-30T01:23:07;100103.56;;;12.45;78.87
78117;BME280;69042;59.120;37.904;2023-08-30T01:25:53;100118.34;;;12.46;78.99
78117;BME280;69042;59.120;37.904;2023-08-30T01:28:24;100108.81;;;12.45;78.93
78117;BME280;69042;59.120;37.904;2023-08-30T01:30:52;100112.34;;;12.44;78.85
78117;BME280;69042;59.120;37.904;2023-08-30T01:33:24;100105.41;;;12.43;79.14
78117;BME280;69042;59.120;37.904;2023-08-30T01:35:55;100109.88;;;12.41;79.13
78117;BME280;69042;59.120;37.904;2023-08-30T01:38:23;100107.25;;;12.41;78.84
78117;BME280;69042;59.120;37.904;2023-08-30T01:40:50;100109.94;;;12.40;78.74
78117;BME280;69042;59.120;37.904;2023-08-30T01:43:20;100104.72;;;12.40;78.95
78117;BME280;69042;59.120;37.904;2023-08-30T01:45:47;100101.31;;;12.38;79.02
78117;BME280;69042;59.120;37.904;2023-08-30T01:48:15;100099.47;;;12.40;79.13
78117;BME280;69042;59.120;37.904;2023-08-30T01:50:44;100099.34;;;12.43;79.21
78117;BME280;69042;59.120;37.904;2023-08-30T01:53:12;100101.03;;;12.44;79.16
78117;BME280;69042;59.120;37.904;2023-08-30T01:55:40;100101.03;;;12.44;79.14
78117;BME280;69042;59.120;37.904;2023-08-30T01:58:07;100096.63;;;12.44;79.10
78117;BME280;69042;59.120;37.904;2023-08-30T02:00:35;100106.25;;;12.44;79.02
78117;BME280;69042;59.120;37.904;2023-08-30T02:03:11;100108.88;;;12.44;79.31
78117;BME280;69042;59.120;37.904;2023-08-30T02:05:47;100109.72;;;12.44;79.09
78117;BME280;69042;59.120;37.904;2023-08-30T02:08:17;100100.19;;;12.43;79.11
78117;BME280;69042;59.120;37.904;2023-08-30T02:10:51;100103.66;;;12.44;79.13
78117;BME280;69042;59.120;37.904;2023-08-30T02:13:21;100115.06;;;12.43;79.06
78117;BME280;69042;59.120;37.904;2023-08-30T02:15:53;100112.50;;;12.41;79.07
78117;BME280;69042;59.120;37.904;2023-08-30T02:18:22;100117.81;;;12.40;78.91
78117;BME280;69042;59.120;37.904;2023-08-30T02:20:52;100113.56;;;12.37;79.15
78117;BME280;69042;59.120;37.904;2023-08-30T02:23:19;100121.44;;;12.37;79.12
78117;BME280;69042;59.120;37.904;2023-08-30T02:25:49;100121.44;;;12.37;79.20
78117;BME280;69042;59.120;37.904;2023-08-30T02:28:15;100123.06;;;12.40;79.35
78117;BME280;69042;59.120;37.904;2023-08-30T02:30:41;100108.94;;;12.42;79.60
78117;BME280;69042;59.120;37.904;2023-08-30T02:33:08;100117.53;;;12.46;79.52
78117;BME280;69042;59.120;37.904;2023-08-30T02:35:35;100109.66;;;12.46;79.63
78117;BME280;69042;59.120;37.904;2023-08-30T02:38:01;100109.50;;;12.49;79.36
78117;BME280;69042;59.120;37.904;2023-08-30T02:40:31;100111.09;;;12.52;79.53
78117;BME280;69042;59.120;37.904;2023-08-30T02:42:57;100115.38;;;12.54;79.39
78117;BME280;69042;59.120;37.904;2023-08-30T02:45:24;100123.06;;;12.57;79.37
78117;BME280;69042;59.120;37.904;2023-08-30T02:47:50;100116.66;;;12.63;79.84
78117;BME280;69042;59.120;37.904;2023-08-30T02:50:17;100120.59;;;12.71;80.18
78117;BME280;69042;59.120;37.904;2023-08-30T02:52:43;100121.00;;;12.81;80.34
78117;BME280;69042;59.120;37.904;2023-08-30T02:55:09;100118.91;;;12.88;80.39
78117;BME280;69042;59.120;37.904;2023-08-30T02:57:36;100119.94;;;13.01;80.28
78117;BME280;69042;59.120;37.904;2023-08-30T03:00:03;100122.94;;;13.11;80.29
78117;BME280;69042;59.120;37.904;2023-08-30T03:02:32;100118.13;;;13.19;80.35
78117;BME280;69042;59.120;37.904;2023-08-30T03:05:03;100119.44;;;13.28;80.05
78117;BME280;69042;59.120;37.904;2023-08-30T03:07:30;100116.44;;;13.36;79.85
78117;BME280;69042;59.120;37.904;2023-08-30T03:09:56;100110.69;;;13.45;79.96
78117;BME280;69042;59.120;37.904;2023-08-30T03:12:24;100117.13;;;13.55;80.16
78117;BME280;69042;59.120;37.904;2023-08-30T03:14:51;100109.69;;;13.63;79.97
78117;BME280;69042;59.120;37.904;2023-08-30T03:17:18;100104.88;;;13.71;79.83
78117;BME280;69042;59.120;37.904;2023-08-30T03:19:44;100108.84;;;13.79;79.96
78117;BME280;69042;59.120;37.904;2023-08-30T03:22:11;100111.03;;;13.86;79.67
78117;BME280;69042;59.120;37.904;2023-08-30T03:24:37;100110.50;;;13.95;79.73
78117;BME280;69042;59.120;37.904;2023-08-30T03:27:04;100110.25;;;14.00;79.37
78117;BME280;69042;59.120;37.904;2023-08-30T03:29:30;100121.19;;;14.08;79.33
78117;BME280;69042;59.120;37.904;2023-08-30T03:31:57;100121.69;;;14.15;79.45
78117;BME280;69042;59.120;37.904;2023-08-30T03:34:23;100123.84;;;14.23;79.62
78117;BME280;69042;59.120;37.904;2023-08-30T03:36:51;100119.97;;;14.30;79.30
78117;BME280;69042;59.120;37.904;2023-08-30T03:39:21;100111.72;;;14.36;79.14
78117;BME280;69042;59.120;37.904;2023-08-30T03:41:47;100119.16;;;14.44;79.20
78117;BME280;69042;59.120;37.904;2023-08-30T03:44:14;100129.22;;;14.51;79.18
78117;BME280;69042;59.120;37.904;2023-08-30T03:46:40;100134.16;;;14.57;79.01
78117;BME280;69042;59.120;37.904;2023-08-30T03:49:07;100139.16;;;14.62;78.91
78117;BME280;69042;59.120;37.904;2023-08-30T03:51:33;100133.56;;;14.68;78.92
78117;BME280;69042;59.120;37.904;2023-08-30T03:54:00;100138.44;;;14.74;78.75
78117;BME280;69042;59.120;37.904;2023-08-30T03:56:26;100136.28;;;14.81;78.68
78117;BME280;69042;59.120;37.904;2023-08-30T03:58:52;100128.88;;;14.88;78.45
78117;BME280;69042;59.120;37.904;2023-08-30T04:01:19;100132.94;;;14.93;78.70
78117;BME280;69042;59.120;37.904;2023-08-30T04:03:45;100130.78;;;15.00;78.42
78117;BME280;69042;59.120;37.904;2023-08-30T04:06:11;100133.13;;;15.05;78.39
78117;BME280;69042;59.120;37.904;2023-08-30T04:08:37;100129.56;;;15.06;78.22
78117;BME280;69042;59.120;37.904;2023-08-30T04:11:05;100128.63;;;15.07;78.12
78117;BME280;69042;59.120;37.904;2023-08-30T04:13:31;100131.16;;;15.08;78.10
78117;BME280;69042;59.120;37.904;2023-08-30T04:15:57;100127.75;;;15.06;78.07
78117;BME280;69042;59.120;37.904;2023-08-30T04:18:24;100129.75;;;15.03;77.99
78117;BME280;69042;59.120;37.904;2023-08-30T04:20:53;100130.78;;;15.00;78.30
78117;BME280;69042;59.120;37.904;2023-08-30T04:23:19;100141.41;;;14.98;78.29
78117;BME280;69042;59.120;37.904;2023-08-30T04:25:45;100138.84;;;14.97;78.45
78117;BME280;69042;59.120;37.904;2023-08-30T04:28:12;100132.94;;;14.93;78.83
78117;BME280;69042;59.120;37.904;2023-08-30T04:30:38;100137.09;;;14.97;78.86
78117;BME280;69042;59.120;37.904;2023-08-30T04:33:05;100145.81;;;14.98;79.05
78117;BME280;69042;59.120;37.904;2023-08-30T04:35:32;100144.78;;;15.01;79.17
78117;BME280;69042;59.120;37.904;2023-08-30T04:38:00;100149.00;;;15.03;79.56
78117;BME280;69042;59.120;37.904;2023-08-30T04:40:27;100151.56;;;15.05;79.33
78117;BME280;69042;59.120;37.904;2023-08-30T04:42:55;100154.84;;;15.08;79.32
78117;BME280;69042;59.120;37.904;2023-08-30T04:45:22;100147.69;;;15.10;79.38
78117;BME280;69042;59.120;37.904;2023-08-30T04:47:48;100143.88;;;15.16;79.89
78117;BME280;69042;59.120;37.904;2023-08-30T04:50:15;100144.97;;;15.26;79.90
78117;BME280;69042;59.120;37.904;2023-08-30T04:52:43;100156.56;;;15.38;79.47
78117;BME280;69042;59.120;37.904;2023-08-30T04:55:11;100154.41;;;15.45;79.56
78117;BME280;69042;59.120;37.904;2023-08-30T04:57:37;100156.00;;;15.47;79.47
78117;BME280;69042;59.120;37.904;2023-08-30T05:00:05;100158.50;;;15.49;79.62
78117;BME280;69042;59.120;37.904;2023-08-30T05:02:32;100152.13;;;15.53;79.72
78117;BME280;69042;59.120;37.904;2023-08-30T05:05:05;100156.19;;;15.58;79.76
78117;BME280;69042;59.120;37.904;2023-08-30T05:07:34;100150.34;;;15.68;79.89
78117;BME280;69042;59.120;37.904;2023-08-30T05:10:01;100150.00;;;15.74;79.68
78117;BME280;69042;59.120;37.904;2023-08-30T05:12:29;100153.94;;;15.81;79.77
78117;BME280;69042;59.120;37.904;2023-08-30T05:14:55;100143.09;;;15.86;79.54
78117;BME280;69042;59.120;37.904;2023-08-30T05:17:23;100146.34;;;15.89;79.06
78117;BME280;69042;59.120;37.904;2023-08-30T05:19:50;100145.31;;;15.92;79.01
78117;BME280;69042;59.120;37.904;2023-08-30T05:22:16;100147.56;;;15.98;79.19
78117;BME280;69042;59.120;37.904;2023-08-30T05:24:42;100140.94;;;16.05;79.28
78117;BME280;69042;59.120;37.904;2023-08-30T05:27:10;100141.97;;;16.17;79.29
78117;BME280;69042;59.120;37.904;2023-08-30T05:29:40;100148.97;;;16.31;79.09
78117;BME280;69042;59.120;37.904;2023-08-30T05:32:06;100140.47;;;16.40;78.67
78117;BME280;69042;59.120;37.904;2023-08-30T05:34:35;100134.47;;;16.51;78.54
78117;BME280;69042;59.120;37.904;2023-08-30T05:37:13;100131.41;;;16.57;78.40
78117;BME280;69042;59.120;37.904;2023-08-30T05:39:58;100131.84;;;16.63;78.18
78117;BME280;69042;59.120;37.904;2023-08-30T05:42:25;100132.19;;;16.72;78.10
78117;BME280;69042;59.120;37.904;2023-08-30T05:44:53;100138.44;;;16.83;78.14
78117;BME280;69042;59.120;37.904;2023-08-30T05:47:20;100133.19;;;16.96;77.91
78117;BME280;69042;59.120;37.904;2023-08-30T05:49:47;100137.44;;;17.12;77.70
78117;BME280;69042;59.120;37.904;2023-08-30T05:52:17;100130.44;;;17.23;77.44
78117;BME280;69042;59.120;37.904;2023-08-30T05:54:45;100140.88;;;17.38;77.21
78117;BME280;69042;59.120;37.904;2023-08-30T05:57:12;100141.63;;;17.53;77.29
78117;BME280;69042;59.120;37.904;2023-08-30T05:59:38;100145.91;;;17.66;76.82
78117;BME280;69042;59.120;37.904;2023-08-30T06:02:09;100156.47;;;17.79;76.32
78117;BME280;69042;59.120;37.904;2023-08-30T06:04:36;100165.16;;;17.81;75.50
78117;BME280;69042;59.120;37.904;2023-08-30T06:07:02;100164.59;;;17.76;75.24
78117;BME280;69042;59.120;37.904;2023-08-30T06:09:29;100177.28;;;17.71;75.35
78117;BME280;69042;59.120;37.904;2023-08-30T06:11:56;100179.31;;;17.67;75.21
78117;BME280;69042;59.120;37.904;2023-08-30T06:14:22;100173.59;;;17.74;75.60
78117;BME280;69042;59.120;37.904;2023-08-30T06:16:48;100179.94;;;17.84;75.35
78117;BME280;69042;59.120;37.904;2023-08-30T06:19:15;100176.88;;;17.90;75.41
78117;BME280;69042;59.120;37.904;2023-08-30T06:21:41;100181.50;;;17.99;74.94
78117;BME280;69042;59.120;37.904;2023-08-30T06:24:08;100179.97;;;18.08;74.92
78117;BME280;69042;59.120;37.904;2023-08-30T06:26:35;100183.88;;;18.15;74.28
78117;BME280;69042;59.120;37.904;2023-08-30T06:29:01;100180.91;;;18.20;74.59
78117;BME280;69042;59.120;37.904;2023-08-30T06:31:28;100186.44;;;18.28;74.60
78117;BME280;69042;59.120;37.904;2023-08-30T06:33:54;100188.22;;;18.40;74.49
78117;BME280;69042;59.120;37.904;2023-08-30T06:36:21;100185.28;;;18.56;74.45
78117;BME280;69042;59.120;37.904;2023-08-30T06:38:49;100184.34;;;18.68;73.94
78117;BME280;69042;59.120;37.904;2023-08-30T06:41:15;100175.97;;;18.75;73.02
78117;BME280;69042;59.120;37.904;2023-08-30T06:43:41;100171.91;;;18.82;73.11
78117;BME280;69042;59.120;37.904;2023-08-30T06:46:08;100169.28;;;18.93;73.36
78117;BME280;69042;59.120;37.904;2023-08-30T06:48:34;100175.25;;;19.08;73.19
78117;BME280;69042;59.120;37.904;2023-08-30T06:51:01;100179.94;;;19.27;72.95
78117;BME280;69042;59.120;37.904;2023-08-30T06:53:27;100185.78;;;19.43;72.25
78117;BME280;69042;59.120;37.904;2023-08-30T06:56:00;100182.88;;;19.58;72.15
78117;BME280;69042;59.120;37.904;2023-08-30T06:58:27;100189.03;;;19.69;71.30
78117;BME280;69042;59.120;37.904;2023-08-30T07:00:53;100185.28;;;19.72;71.20
78117;BME280;69042;59.120;37.904;2023-08-30T07:03:20;100185.66;;;19.79;71.16
78117;BME280;69042;59.120;37.904;2023-08-30T07:05:46;100179.25;;;19.92;70.60
78117;BME280;69042;59.120;37.904;2023-08-30T07:08:14;100189.00;;;20.03;70.31
78117;BME280;69042;59.120;37.904;2023-08-30T07:10:41;100179.69;;;20.20;69.92
78117;BME280;69042;59.120;37.904;2023-08-30T07:13:07;100173.44;;;20.42;70.23
78117;BME280;69042;59.120;37.904;2023-08-30T07:15:41;100178.13;;;20.61;69.31
78117;BME280;69042;59.120;37.904;2023-08-30T07:18:08;100185.69;;;20.66;68.51
78117;BME280;69042;59.120;37.904;2023-08-30T07:20:35;100190.19;;;20.65;67.79
78117;BME280;69042;59.120;37.904;2023-08-30T07:23:05;100192.94;;;20.64;67.55
78117;BME280;69042;59.120;37.904;2023-08-30T07:25:31;100193.31;;;20.59;67.52
78117;BME280;69042;59.120;37.904;2023-08-30T07:28:00;100198.75;;;20.57;67.58
78117;BME280;69042;59.120;37.904;2023-08-30T07:30:27;100197.16;;;20.66;67.60
78117;BME280;69042;59.120;37.904;2023-08-30T07:32:54;100201.38;;;20.69;67.34
78117;BME280;69042;59.120;37.904;2023-08-30T07:35:21;100193.53;;;20.67;66.92
78117;BME280;69042;59.120;37.904;2023-08-30T07:37:48;100190.75;;;20.69;66.88
78117;BME280;69042;59.120;37.904;2023-08-30T07:40:15;100195.81;;;20.72;67.00
78117;BME280;69042;59.120;37.904;2023-08-30T07:42:42;100185.53;;;20.78;67.00
78117;BME280;69042;59.120;37.904;2023-08-30T07:45:09;100184.94;;;20.75;65.98
78117;BME280;69042;59.120;37.904;2023-08-30T07:47:36;100185.09;;;20.62;66.13
78117;BME280;69042;59.120;37.904;2023-08-30T07:50:05;100189.69;;;20.49;66.13
78117;BME280;69042;59.120;37.904;2023-08-30T07:52:31;100198.03;;;20.44;66.33
78117;BME280;69042;59.120;37.904;2023-08-30T07:54:57;100198.69;;;20.36;66.28
78117;BME280;69042;59.120;37.904;2023-08-30T07:57:24;100198.59;;;20.27;66.28
78117;BME280;69042;59.120;37.904;2023-08-30T07:59:50;100204.50;;;20.19;66.68
78117;BME280;69042;59.120;37.904;2023-08-30T08:02:17;100201.03;;;20.18;66.88
78117;BME280;69042;59.120;37.904;2023-08-30T08:04:44;100207.88;;;20.21;66.61
78117;BME280;69042;59.120;37.904;2023-08-30T08:07:11;100211.25;;;20.23;66.75
78117;BME280;69042;59.120;37.904;2023-08-30T08:09:37;100209.44;;;20.24;66.56
78117;BME280;69042;59.120;37.904;2023-08-30T08:12:05;100217.66;;;20.21;66.29
78117;BME280;69042;59.120;37.904;2023-08-30T08:14:31;100216.47;;;20.13;66.70
78117;BME280;69042;59.120;37.904;2023-08-30T08:16:58;100235.50;;;20.18;66.82
78117;BME280;69042;59.120;37.904;2023-08-30T08:19:24;100239.63;;;20.23;66.85
78117;BME280;69042;59.120;37.904;2023-08-30T08:21:51;100230.56;;;20.25;66.57
78117;BME280;69042;59.120;37.904;2023-08-30T08:24:19;100223.69;;;20.23;66.59
78117;BME280;69042;59.120;37.904;2023-08-30T08:26:45;100235.03;;;20.25;66.74
78117;BME280;69042;59.120;37.904;2023-08-30T08:29:12;100240.44;;;20.34;66.79
78117;BME280;69042;59.120;37.904;2023-08-30T08:31:39;100243.16;;;20.44;66.91
78117;BME280;69042;59.120;37.904;2023-08-30T08:34:08;100239.75;;;20.53;66.44
78117;BME280;69042;59.120;37.904;2023-08-30T08:36:37;100241.84;;;20.61;66.55
78117;BME280;69042;59.120;37.904;2023-08-30T08:39:04;100241.19;;;20.69;66.02
78117;BME280;69042;59.120;37.904;2023-08-30T08:41:36;100242.75;;;20.71;66.12
78117;BME280;69042;59.120;37.904;2023-08-30T08:44:05;100240.47;;;20.67;65.78
78117;BME280;69042;59.120;37.904;2023-08-30T08:46:32;100241.47;;;20.66;65.85
78117;BME280;69042;59.120;37.904;2023-08-30T08:49:25;100245.06;;;20.65;65.51
78117;BME280;69042;59.120;37.904;2023-08-30T08:51:54;100243.78;;;20.59;65.94
78117;BME280;69042;59.120;37.904;2023-08-30T08:54:21;100249.41;;;20.66;66.19
78117;BME280;69042;59.120;37.904;2023-08-30T08:56:48;100245.66;;;20.68;65.25
78117;BME280;69042;59.120;37.904;2023-08-30T08:59:14;100240.63;;;20.65;64.83
78117;BME280;69042;59.120;37.904;2023-08-30T09:01:42;100236.91;;;20.56;64.36
78117;BME280;69042;59.120;37.904;2023-08-30T09:04:09;100246.16;;;20.51;64.21
78117;BME280;69042;59.120;37.904;2023-08-30T09:06:37;100250.91;;;20.47;63.82
78117;BME280;69042;59.120;37.904;2023-08-30T09:09:04;100248.47;;;20.44;63.83
78117;BME280;69042;59.120;37.904;2023-08-30T09:11:31;100263.00;;;20.40;63.04
78117;BME280;69042;59.120;37.904;2023-08-30T09:13:58;100270.34;;;20.36;63.77
78117;BME280;69042;59.120;37.904;2023-08-30T09:16:24;100267.81;;;20.35;63.81
78117;BME280;69042;59.120;37.904;2023-08-30T09:18:58;100272.28;;;20.34;63.79
78117;BME280;69042;59.120;37.904;2023-08-30T09:21:25;100268.53;;;20.37;63.75
78117;BME280;69042;59.120;37.904;2023-08-30T09:24:02;100264.66;;;20.41;63.34
78117;BME280;69042;59.120;37.904;2023-08-30T09:26:29;100270.44;;;20.46;63.64
78117;BME280;69042;59.120;37.904;2023-08-30T09:29:06;100263.44;;;20.45;63.32
78117;BME280;69042;59.120;37.904;2023-08-30T09:31:38;100286.34;;;20.46;63.30
78117;BME280;69042;59.120;37.904;2023-08-30T09:34:06;100282.88;;;20.46;63.32
78117;BME280;69042;59.120;37.904;2023-08-30T09:36:42;100279.94;;;20.49;63.24
78117;BME280;69042;59.120;37.904;2023-08-30T09:39:14;100279.72;;;20.52;63.21
78117;BME280;69042;59.120;37.904;2023-08-30T09:41:41;100276.09;;;20.53;63.07
78117;BME280;69042;59.120;37.904;2023-08-30T09:44:12;100278.50;;;20.56;63.02
78117;BME280;69042;59.120;37.904;2023-08-30T09:46:50;100268.50;;;20.59;62.94
78117;BME280;69042;59.120;37.904;2023-08-30T09:49:19;100275.38;;;20.62;62.85
78117;BME280;69042;59.120;37.904;2023-08-30T09:51:50;100275.97;;;20.66;63.16
78117;BME280;69042;59.120;37.904;2023-08-30T09:54:20;100266.91;;;20.68;63.03
78117;BME280;69042;59.120;37.904;2023-08-30T09:56:46;100264.25;;;20.68;63.05
78117;BME280;69042;59.120;37.904;2023-08-30T09:59:14;100255.19;;;20.71;63.57
78117;BME280;69042;59.120;37.904;2023-08-30T10:01:42;100251.31;;;20.75;63.71
78117;BME280;69042;59.120;37.904;2023-08-30T10:04:10;100245.34;;;20.83;63.61
78117;BME280;69042;59.120;37.904;2023-08-30T10:06:39;100252.22;;;20.96;63.26
78117;BME280;69042;59.120;37.904;2023-08-30T10:09:08;100256.16;;;21.02;62.91
78117;BME280;69042;59.120;37.904;2023-08-30T10:11:38;100253.09;;;21.07;62.40
78117;BME280;69042;59.120;37.904;2023-08-30T10:14:06;100251.03;;;21.10;62.30
78117;BME280;69042;59.120;37.904;2023-08-30T10:16:48;100241.25;;;21.11;62.10
78117;BME280;69042;59.120;37.904;2023-08-30T10:19:24;100245.06;;;21.18;62.42
78117;BME280;69042;59.120;37.904;2023-08-30T10:22:02;100239.44;;;21.32;62.73
78117;BME280;69042;59.120;37.904;2023-08-30T10:24:54;100229.44;;;21.46;62.55
78117;BME280;69042;59.120;37.904;2023-08-30T10:27:22;100240.88;;;21.57;62.62
78117;BME280;69042;59.120;37.904;2023-08-30T10:29:49;100236.84;;;21.73;62.68
78117;BME280;69042;59.120;37.904;2023-08-30T10:32:20;100228.94;;;21.82;62.26
78117;BME280;69042;59.120;37.904;2023-08-30T10:34:50;100225.75;;;21.89;61.74
78117;BME280;69042;59.120;37.904;2023-08-30T10:37:22;100225.91;;;21.97;61.24
78117;BME280;69042;59.120;37.904;2023-08-30T10:40:09;100224.81;;;22.09;61.46
78117;BME280;69042;59.120;37.904;2023-08-30T10:42:37;100220.13;;;22.22;60.81
78117;BME280;69042;59.120;37.904;2023-08-30T10:45:06;100222.50;;;22.35;60.64
78117;BME280;69042;59.120;37.904;2023-08-30T10:47:35;100226.88;;;22.46;60.27
78117;BME280;69042;59.120;37.904;2023-08-30T10:50:09;100229.00;;;22.62;59.93
78117;BME280;69042;59.120;37.904;2023-08-30T10:52:36;100232.22;;;22.85;59.81
78117;BME280;69042;59.120;37.904;2023-08-30T10:55:13;100228.31;;;23.09;58.94
78117;BME280;69042;59.120;37.904;2023-08-30T10:57:44;100227.41;;;23.37;58.95
78117;BME280;69042;59.120;37.904;2023-08-30T11:02:45;100226.53;;;23.94;57.13
78117;BME280;69042;59.120;37.904;2023-08-30T11:05:12;100215.81;;;24.21;56.86
78117;BME280;69042;59.120;37.904;2023-08-30T11:07:38;100211.00;;;24.52;56.01
78117;BME280;69042;59.120;37.904;2023-08-30T11:10:05;100199.81;;;24.93;55.21
78117;BME280;69042;59.120;37.904;2023-08-30T11:12:35;100201.16;;;25.41;54.91
78117;BME280;69042;59.120;37.904;2023-08-30T11:15:01;100200.59;;;25.90;53.99
78117;BME280;69042;59.120;37.904;2023-08-30T11:17:28;100202.56;;;26.38;52.80
78117;BME280;69042;59.120;37.904;2023-08-30T11:20:05;100202.31;;;26.91;51.66
78117;BME280;69042;59.120;37.904;2023-08-30T11:22:42;100194.38;;;27.38;50.20
78117;BME280;69042;59.120;37.904;2023-08-30T11:25:09;100181.47;;;27.73;50.03
78117;BME280;69042;59.120;37.904;2023-08-30T11:27:38;100184.66;;;28.16;49.29
78117;BME280;69042;59.120;37.904;2023-08-30T11:30:06;100194.31;;;28.57;47.93
78117;BME280;69042;59.120;37.904;2023-08-30T11:32:36;100185.75;;;28.76;46.76
78117;BME280;69042;59.120;37.904;2023-08-30T11:35:03;100193.34;;;28.96;46.08
78117;BME280;69042;59.120;37.904;2023-08-30T11:37:30;100208.13;;;29.15;45.14
78117;BME280;69042;59.120;37.904;2023-08-30T11:39:57;100207.81;;;29.47;45.12
78117;BME280;69042;59.120;37.904;2023-08-30T11:42:25;100203.16;;;29.86;44.49
78117;BME280;69042;59.120;37.904;2023-08-30T11:44:52;100196.66;;;30.17;43.20
78117;BME280;69042;59.120;37.904;2023-08-30T11:47:25;100197.75;;;30.59;43.10
78117;BME280;69042;59.120;37.904;2023-08-30T11:49:53;100202.81;;;31.18;42.12
78117;BME280;69042;59.120;37.904;2023-08-30T11:52:21;100198.81;;;31.77;41.06
78117;BME280;69042;59.120;37.904;2023-08-30T11:54:49;100192.59;;;32.38;40.02
78117;BME280;69042;59.120;37.904;2023-08-30T11:57:15;100184.97;;;33.15;38.25
78117;BME280;69042;59.120;37.904;2023-08-30T11:59:43;100178.94;;;33.85;37.00
78117;BME280;69042;59.120;37.904;2023-08-30T12:02:12;100178.03;;;34.36;36.50
78117;BME280;69042;59.120;37.904;2023-08-30T12:04:44;100179.69;;;35.19;35.60
78117;BME280;69042;59.120;37.904;2023-08-30T12:07:22;100171.72;;;36.10;34.66
78117;BME280;69042;59.120;37.904;2023-08-30T12:09:48;100172.00;;;36.85;32.90
78117;BME280;69042;59.120;37.904;2023-08-30T12:12:15;100171.09;;;37.27;31.18
78117;BME280;69042;59.120;37.904;2023-08-30T12:14:41;100167.19;;;37.23;30.23
78117;BME280;69042;59.120;37.904;2023-08-30T12:17:09;100157.81;;;36.95;29.83
78117;BME280;69042;59.120;37.904;2023-08-30T12:19:38;100157.19;;;36.81;29.68
78117;BME280;69042;59.120;37.904;2023-08-30T12:22:09;100144.75;;;36.97;28.92
78117;BME280;69042;59.120;37.904;2023-08-30T12:24:45;100151.19;;;37.15;29.27
78117;BME280;69042;59.120;37.904;2023-08-30T12:27:14;100149.28;;;37.27;28.88
78117;BME280;69042;59.120;37.904;2023-08-30T12:29:40;100156.88;;;37.25;29.38
78117;BME280;69042;59.120;37.904;2023-08-30T12:32:07;100153.66;;;37.28;28.88
78117;BME280;69042;59.120;37.904;2023-08-30T12:34:34;100157.47;;;37.27;28.78
78117;BME280;69042;59.120;37.904;2023-08-30T12:37:01;100149.50;;;37.25;28.15
78117;BME280;69042;59.120;37.904;2023-08-30T12:39:28;100142.72;;;37.52;28.96
78117;BME280;69042;59.120;37.904;2023-08-30T12:41:55;100142.69;;;37.92;28.21
78117;BME280;69042;59.120;37.904;2023-08-30T12:44:21;100132.41;;;38.28;27.96
78117;BME280;69042;59.120;37.904;2023-08-30T12:46:48;100119.72;;;38.67;27.31
78117;BME280;69042;59.120;37.904;2023-08-30T12:49:14;100112.13;;;39.08;26.76